createdAt,value
2022-10-14T00:01:13.187Z,100935.94
2022-10-14T00:03:40.637Z,100930.88
2022-10-14T00:06:10.485Z,100943.28
2022-10-14T00:08:37.869Z,100938.31
2022-10-14T00:11:10.757Z,100937.97
2022-10-14T00:13:38.363Z,100931.94
2022-10-14T00:16:06.364Z,100936.69
2022-10-14T00:18:33.672Z,100931.47
2022-10-14T00:21:02.050Z,100922.41
2022-10-14T00:23:30.765Z,100924.50
2022-10-14T00:25:58.003Z,100919.75
2022-10-14T00:28:30.488Z,100921.50
2022-10-14T00:30:59.819Z,100923.00
2022-10-14T00:33:28.040Z,100905.84
2022-10-14T00:35:58.982Z,100912.44
2022-10-14T00:38:31.887Z,100905.25
2022-10-14T00:40:59.204Z,100898.44
2022-10-14T00:43:27.886Z,100898.09
2022-10-14T00:45:55.159Z,100894.13
2022-10-14T00:48:24.984Z,100889.75
2022-10-14T00:50:56.609Z,100896.69
2022-10-14T00:53:23.888Z,100902.59
2022-10-14T00:55:53.172Z,100899.94
2022-10-14T00:58:23.862Z,100888.81
2022-10-14T01:00:51.306Z,100883.84
2022-10-14T01:03:21.270Z,100890.56
2022-10-14T01:05:55.497Z,100890.34
2022-10-14T01:08:31.640Z,100884.88
2022-10-14T01:11:14.997Z,100879.75
2022-10-14T01:13:50.895Z,100882.22
2022-10-14T01:16:21.792Z,100868.53
2022-10-14T01:19:33.393Z,100874.78
2022-10-14T01:22:32.573Z,100869.88
2022-10-14T01:25:20.471Z,100852.75
2022-10-14T01:28:16.645Z,100859.25
2022-10-14T01:30:47.070Z,100849.88
2022-10-14T01:33:24.793Z,100853.59
2022-10-14T01:36:12.309Z,100854.50
2022-10-14T01:38:45.412Z,100856.06
2022-10-14T01:41:29.109Z,100851.44
2022-10-14T01:44:00.548Z,100847.97
2022-10-14T01:46:29.680Z,100849.63
2022-10-14T01:49:01.878Z,100840.34
2022-10-14T01:51:33.322Z,100842.88
2022-10-14T01:54:04.717Z,100838.09
2022-10-14T01:56:35.011Z,100844.81
2022-10-14T01:59:06.936Z,100837.75
2022-10-14T02:01:35.004Z,100838.66
2022-10-14T02:04:02.483Z,100839.75
2022-10-14T02:06:32.601Z,100842.91
2022-10-14T02:09:12.830Z,100833.25
2022-10-14T02:11:57.332Z,100837.47
2022-10-14T02:14:27.593Z,100822.69
2022-10-14T02:16:55.928Z,100828.56
2022-10-14T02:19:28.794Z,100818.72
2022-10-14T02:22:02.072Z,100820.63
2022-10-14T02:24:38.377Z,100820.72
2022-10-14T02:27:09.597Z,100814.03
2022-10-14T02:29:39.081Z,100820.00
2022-10-14T02:32:07.331Z,100819.31
2022-10-14T02:34:35.448Z,100825.88
2022-10-14T02:37:03.498Z,100814.47
2022-10-14T02:39:36.756Z,100813.53
2022-10-14T02:42:05.834Z,100810.91
2022-10-14T02:44:34.727Z,100814.25
2022-10-14T02:47:02.131Z,100815.13
2022-10-14T02:49:30.551Z,100811.91
2022-10-14T02:51:57.812Z,100808.81
2022-10-14T02:54:25.067Z,100796.88
2022-10-14T02:56:52.320Z,100807.63
2022-10-14T02:59:19.533Z,100807.84
2022-10-14T03:01:47.101Z,100812.94
2022-10-14T03:04:16.305Z,100805.50
2022-10-14T03:06:43.575Z,100810.47
2022-10-14T03:09:10.797Z,100808.56
2022-10-14T03:11:40.974Z,100809.97
2022-10-14T03:14:13.436Z,100810.81
2022-10-14T03:16:42.342Z,100816.34
2022-10-14T03:19:12.347Z,100804.50
2022-10-14T03:21:44.423Z,100801.41
2022-10-14T03:24:18.343Z,100815.88
2022-10-14T03:26:47.691Z,100808.72
2022-10-14T03:29:20.068Z,100816.72
2022-10-14T03:31:55.362Z,100810.38
2022-10-14T03:34:41.125Z,100803.88
2022-10-14T03:37:15.090Z,100796.69
2022-10-14T03:39:49.051Z,100797.34
2022-10-14T03:42:17.483Z,100796.06
2022-10-14T03:44:47.868Z,100794.81
2022-10-14T03:47:19.072Z,100785.66
2022-10-14T03:49:46.576Z,100787.22
2022-10-14T03:52:34.040Z,100792.47
2022-10-14T03:55:18.029Z,100788.53
2022-10-14T03:57:47.566Z,100795.09
2022-10-14T04:00:16.656Z,100798.03
2022-10-14T04:02:50.001Z,100799.22
2022-10-14T04:05:33.671Z,100789.28
2022-10-14T04:08:04.158Z,100803.22
2022-10-14T04:10:31.796Z,100792.50
2022-10-14T04:13:01.818Z,100800.44
2022-10-14T04:15:36.553Z,100805.25
2022-10-14T04:18:24.005Z,100794.00
2022-10-14T04:20:53.768Z,100801.75
2022-10-14T04:23:23.322Z,100792.19
2022-10-14T04:25:54.948Z,100791.09
2022-10-14T04:28:23.643Z,100773.88
2022-10-14T04:31:00.545Z,100784.50
2022-10-14T04:33:35.061Z,100791.97
2022-10-14T04:36:10.531Z,100784.47
2022-10-14T04:38:40.771Z,100787.72
2022-10-14T04:41:10.377Z,100795.91
2022-10-14T04:43:41.821Z,100802.03
2022-10-14T04:46:20.691Z,100791.41
2022-10-14T04:48:49.172Z,100776.19
2022-10-14T04:51:17.789Z,100776.63
2022-10-14T04:54:02.986Z,100768.84
2022-10-14T04:56:56.949Z,100771.56
2022-10-14T04:59:24.223Z,100770.44
2022-10-14T05:02:01.106Z,100779.53
2022-10-14T05:04:37.701Z,100771.84
2022-10-14T05:07:04.996Z,100772.09
2022-10-14T05:09:33.396Z,100776.59
2022-10-14T05:12:01.220Z,100772.28
2022-10-14T05:14:38.619Z,100773.16
2022-10-14T05:17:22.687Z,100772.19
2022-10-14T05:19:49.935Z,100775.50
2022-10-14T05:22:19.379Z,100771.72
2022-10-14T05:24:46.953Z,100770.00
2022-10-14T05:27:14.874Z,100760.41
2022-10-14T05:29:43.215Z,100764.53
2022-10-14T05:32:10.711Z,100761.84
2022-10-14T05:34:45.066Z,100771.03
2022-10-14T05:37:25.103Z,100765.75
2022-10-14T05:39:56.213Z,100754.78
2022-10-14T05:42:26.536Z,100757.47
2022-10-14T05:44:56.800Z,100761.50
2022-10-14T05:47:25.118Z,100759.84
2022-10-14T05:49:57.695Z,100756.72
2022-10-14T05:52:25.288Z,100754.47
2022-10-14T05:54:53.835Z,100760.88
2022-10-14T05:57:24.885Z,100765.88
2022-10-14T05:59:52.079Z,100762.00
2022-10-14T06:02:19.664Z,100766.06
2022-10-14T06:04:47.619Z,100767.66
2022-10-14T06:07:15.096Z,100767.66
2022-10-14T06:09:42.559Z,100772.94
2022-10-14T06:12:10.264Z,100770.00
2022-10-14T06:14:38.834Z,100764.81
2022-10-14T06:17:06.583Z,100759.97
2022-10-14T06:19:34.008Z,100768.25
2022-10-14T06:22:01.238Z,100768.22
2022-10-14T06:24:28.738Z,100765.38
2022-10-14T06:26:56.030Z,100769.50
2022-10-14T06:29:26.582Z,100769.22
2022-10-14T06:31:53.804Z,100773.31
2022-10-14T06:34:23.750Z,100767.69
2022-10-14T06:36:50.990Z,100776.28
2022-10-14T06:39:18.167Z,100778.44
2022-10-14T06:41:45.435Z,100775.34
2022-10-14T06:44:20.442Z,100772.19
2022-10-14T06:46:47.736Z,100768.84
2022-10-14T06:49:14.963Z,100765.97
2022-10-14T06:51:42.278Z,100775.25
2022-10-14T06:54:09.503Z,100779.28
2022-10-14T06:56:36.738Z,100782.91
2022-10-14T06:59:05.830Z,100779.47
2022-10-14T07:01:33.117Z,100786.84
2022-10-14T07:04:00.383Z,100783.84
2022-10-14T07:06:27.650Z,100791.13
2022-10-14T07:08:54.881Z,100790.78
2022-10-14T07:11:22.279Z,100804.19
2022-10-14T07:13:49.650Z,100807.47
2022-10-14T07:16:16.863Z,100805.16
2022-10-14T07:18:44.161Z,100808.00
2022-10-14T07:21:11.730Z,100811.97
2022-10-14T07:23:39.031Z,100813.66
2022-10-14T07:26:06.317Z,100809.78
2022-10-14T07:28:34.191Z,100808.25
2022-10-14T07:31:04.037Z,100814.81
2022-10-14T07:33:31.380Z,100818.16
2022-10-14T07:36:03.317Z,100817.53
2022-10-14T07:38:31.387Z,100830.72
2022-10-14T07:41:07.771Z,100833.34
2022-10-14T07:43:35.895Z,100830.94
2022-10-14T07:46:05.219Z,100830.22
2022-10-14T07:48:45.246Z,100832.34
2022-10-14T07:51:21.559Z,100838.88
2022-10-14T07:53:50.179Z,100828.03
2022-10-14T07:56:17.464Z,100834.03
2022-10-14T07:58:44.757Z,100847.53
2022-10-14T08:01:12.837Z,100841.81
2022-10-14T08:03:40.192Z,100835.00
2022-10-14T08:06:07.583Z,100838.09
2022-10-14T08:08:35.738Z,100849.22
2022-10-14T08:11:24.717Z,100850.88
2022-10-14T08:13:52.200Z,100848.31
2022-10-14T08:16:21.621Z,100854.75
2022-10-14T08:18:49.765Z,100858.88
2022-10-14T08:21:18.169Z,100859.44
2022-10-14T08:23:45.591Z,100853.34
2022-10-14T08:26:18.614Z,100858.09
2022-10-14T08:28:46.162Z,100849.06
2022-10-14T08:31:13.631Z,100865.34
2022-10-14T08:33:40.813Z,100862.44
2022-10-14T08:36:08.661Z,100858.06
2022-10-14T08:38:35.926Z,100854.69
2022-10-14T08:41:12.295Z,100855.03
2022-10-14T08:43:43.303Z,100856.09
2022-10-14T08:46:19.249Z,100845.75
2022-10-14T08:48:48.112Z,100842.44
2022-10-14T08:51:17.576Z,100849.53
2022-10-14T08:53:56.179Z,100848.09
2022-10-14T08:56:24.601Z,100850.66
2022-10-14T08:58:53.991Z,100846.81
2022-10-14T09:01:36.265Z,100851.66
2022-10-14T09:04:10.718Z,100853.53
2022-10-14T09:06:40.282Z,100852.38
2022-10-14T09:09:16.756Z,100855.16
2022-10-14T09:11:46.289Z,100844.31
2022-10-14T09:14:21.607Z,100843.97
2022-10-14T09:16:54.181Z,100837.06
2022-10-14T09:19:46.882Z,100832.75
2022-10-14T09:22:15.406Z,100821.75
2022-10-14T09:24:46.154Z,100836.50
2022-10-14T09:27:17.645Z,100822.34
2022-10-14T09:29:57.244Z,100827.31
2022-10-14T09:32:30.626Z,100827.41
2022-10-14T09:34:58.718Z,100831.13
2022-10-14T09:37:26.091Z,100834.50
2022-10-14T09:39:56.560Z,100829.50
2022-10-14T09:42:26.047Z,100828.69
2022-10-14T09:45:14.265Z,100820.75
2022-10-14T09:47:59.193Z,100825.47
2022-10-14T09:50:39.800Z,100819.34
2022-10-14T09:53:13.888Z,100824.94
2022-10-14T09:55:48.235Z,100822.50
2022-10-14T09:58:41.444Z,100823.72
2022-10-14T10:01:14.504Z,100813.78
2022-10-14T10:03:42.114Z,100820.94
2022-10-14T10:06:11.965Z,100816.47
2022-10-14T10:09:01.353Z,100824.66
2022-10-14T10:11:40.080Z,100815.47
2022-10-14T10:14:27.682Z,100817.91
2022-10-14T10:17:07.262Z,100818.91
2022-10-14T10:19:37.565Z,100810.25
2022-10-14T10:22:24.612Z,100810.81
2022-10-14T10:25:01.078Z,100816.09
2022-10-14T10:27:36.605Z,100815.22
2022-10-14T10:30:22.076Z,100806.59
2022-10-14T10:32:52.321Z,100791.88
2022-10-14T10:35:22.173Z,100790.91
2022-10-14T10:38:03.332Z,100802.06
2022-10-14T10:40:52.782Z,100797.09
2022-10-14T10:43:19.983Z,100797.91
2022-10-14T10:46:01.248Z,100797.53
2022-10-14T10:48:48.015Z,100786.84
2022-10-14T10:51:34.467Z,100785.09
2022-10-14T10:54:39.883Z,100780.69
2022-10-14T10:57:18.182Z,100764.56
2022-10-14T10:59:56.334Z,100750.41
2022-10-14T11:02:58.242Z,100753.88
2022-10-14T11:05:47.443Z,100748.88
2022-10-14T11:08:45.704Z,100750.22
2022-10-14T11:12:04.758Z,100757.81
2022-10-14T11:14:47.410Z,100744.72
2022-10-14T11:17:14.623Z,100747.56
2022-10-14T11:20:01.083Z,100748.91
2022-10-14T11:22:48.015Z,100736.72
2022-10-14T11:25:40.872Z,100729.41
2022-10-14T11:28:12.662Z,100721.84
2022-10-14T11:30:39.842Z,100718.09
2022-10-14T11:33:45.574Z,100713.22
2022-10-14T11:36:25.294Z,100705.66
2022-10-14T11:39:16.464Z,100707.34
2022-10-14T11:41:55.968Z,100701.81
2022-10-14T11:44:32.393Z,100698.03
2022-10-14T11:47:04.507Z,100699.25
2022-10-14T11:49:36.675Z,100690.38
2022-10-14T11:52:07.749Z,100690.66
2022-10-14T11:54:43.662Z,100696.88
2022-10-14T11:57:20.347Z,100680.50
2022-10-14T12:00:01.173Z,100679.88
2022-10-14T12:02:41.067Z,100673.22
2022-10-14T12:05:44.514Z,100665.66
2022-10-14T12:08:22.229Z,100657.16
2022-10-14T12:10:58.297Z,100660.03
2022-10-14T12:13:32.563Z,100651.47
2022-10-14T12:16:05.456Z,100637.47
2022-10-14T12:18:33.085Z,100646.09
2022-10-14T12:21:08.649Z,100638.91
2022-10-14T12:23:47.294Z,100633.78
2022-10-14T12:26:20.495Z,100633.88
2022-10-14T12:28:47.931Z,100632.75
2022-10-14T12:31:38.298Z,100617.53
2022-10-14T12:34:11.613Z,100613.56
2022-10-14T12:36:39.817Z,100609.91
2022-10-14T12:39:19.030Z,100597.44
2022-10-14T12:42:10.473Z,100592.50
2022-10-14T12:44:51.860Z,100590.72
2022-10-14T12:47:21.258Z,100586.56
2022-10-14T12:49:56.470Z,100578.22
2022-10-14T12:52:27.225Z,100569.53
2022-10-14T12:54:55.209Z,100562.25
2022-10-14T12:57:28.685Z,100558.94
2022-10-14T12:59:59.352Z,100556.78
2022-10-14T13:02:33.088Z,100547.63
2022-10-14T13:05:06.820Z,100544.47
2022-10-14T13:07:42.896Z,100533.16
2022-10-14T13:10:50.414Z,100534.81
2022-10-14T13:13:44.837Z,100527.41
2022-10-14T13:16:21.154Z,100521.50
2022-10-14T13:18:53.222Z,100523.13
2022-10-14T13:21:34.815Z,100511.81
2022-10-14T13:24:06.037Z,100503.19
2022-10-14T13:26:54.639Z,100498.69
2022-10-14T13:29:40.637Z,100490.66
2022-10-14T13:32:25.858Z,100482.47
2022-10-14T13:35:01.244Z,100476.50
2022-10-14T13:38:05.474Z,100468.03
2022-10-14T13:40:43.751Z,100468.09
2022-10-14T13:43:20.036Z,100462.50
2022-10-14T13:45:53.381Z,100462.38
2022-10-14T13:48:30.968Z,100461.13
2022-10-14T13:51:24.687Z,100463.50
2022-10-14T13:54:17.188Z,100451.44
2022-10-14T13:56:44.939Z,100445.41
2022-10-14T13:59:43.130Z,100449.50
2022-10-14T14:02:16.150Z,100435.91
2022-10-14T14:04:51.557Z,100431.31
2022-10-14T14:07:59.230Z,100423.63
2022-10-14T14:10:18.857Z,100427.91
2022-10-14T14:12:46.718Z,100425.00
2022-10-14T14:15:21.631Z,100424.59
2022-10-14T14:17:48.967Z,100419.88
2022-10-14T14:20:24.441Z,100421.28
2022-10-14T14:22:54.097Z,100408.16
2022-10-14T14:25:35.716Z,100411.97
2022-10-14T14:28:15.409Z,100390.56
2022-10-14T14:30:54.293Z,100389.84
2022-10-14T14:33:33.964Z,100386.75
2022-10-14T14:36:03.912Z,100388.09
2022-10-14T14:38:33.420Z,100382.38
2022-10-14T14:41:06.057Z,100390.53
2022-10-14T14:43:37.406Z,100375.19
2022-10-14T14:46:07.178Z,100365.09
2022-10-14T14:48:34.497Z,100364.13
2022-10-14T14:51:01.855Z,100348.84
2022-10-14T14:53:32.189Z,100344.78
2022-10-14T14:56:10.423Z,100346.31
2022-10-14T14:58:49.234Z,100345.44
2022-10-14T15:01:28.978Z,100345.56
2022-10-14T15:04:12.652Z,100335.31
2022-10-14T15:07:04.097Z,100330.41
2022-10-14T15:10:00.856Z,100338.09
2022-10-14T15:12:30.991Z,100330.72
2022-10-14T15:14:59.823Z,100326.50
2022-10-14T15:17:30.130Z,100322.00
2022-10-14T15:20:01.291Z,100317.69
2022-10-14T15:22:36.568Z,100312.50
2022-10-14T15:25:10.365Z,100304.34
2022-10-14T15:27:37.533Z,100309.44
2022-10-14T15:30:31.781Z,100302.06
2022-10-14T15:33:06.118Z,100294.53
2022-10-14T15:35:34.197Z,100291.56
2022-10-14T15:38:01.498Z,100300.31
2022-10-14T15:40:32.364Z,100301.91
2022-10-14T15:42:59.708Z,100293.75
2022-10-14T15:45:27.110Z,100298.31
2022-10-14T15:48:00.707Z,100299.25
2022-10-14T15:50:28.170Z,100287.69
2022-10-14T15:52:56.884Z,100295.63
2022-10-14T15:55:27.138Z,100298.53
2022-10-14T15:57:54.512Z,100296.16
2022-10-14T16:00:23.636Z,100297.53
2022-10-14T16:02:54.529Z,100293.47
2022-10-14T16:05:21.903Z,100289.59
2022-10-14T16:07:49.491Z,100280.41
2022-10-14T16:10:21.563Z,100274.88
2022-10-14T16:12:49.584Z,100273.59
2022-10-14T16:15:22.599Z,100267.66
2022-10-14T16:17:52.814Z,100283.13
2022-10-14T16:20:21.478Z,100276.50
2022-10-14T16:22:48.965Z,100278.84
2022-10-14T16:25:23.971Z,100276.44
2022-10-14T16:27:51.319Z,100282.47
2022-10-14T16:30:18.793Z,100282.88
2022-10-14T16:32:45.980Z,100287.66
2022-10-14T16:35:13.239Z,100285.72
2022-10-14T16:37:41.092Z,100275.28
2022-10-14T16:40:10.919Z,100269.50
2022-10-14T16:42:38.373Z,100272.25
2022-10-14T16:45:06.278Z,100258.59
2022-10-14T16:47:33.689Z,100259.75
2022-10-14T16:50:00.981Z,100258.13
2022-10-14T16:52:28.213Z,100256.91
2022-10-14T16:54:55.505Z,100265.28
2022-10-14T16:57:22.790Z,100262.09
2022-10-14T16:59:50.059Z,100264.44
2022-10-14T17:02:18.036Z,100263.59
2022-10-14T17:04:46.541Z,100267.22
2022-10-14T17:07:16.592Z,100264.81
2022-10-14T17:09:43.857Z,100268.88
2022-10-14T17:12:13.779Z,100268.00
2022-10-14T17:14:41.655Z,100260.47
2022-10-14T17:17:10.373Z,100266.72
2022-10-14T17:19:38.429Z,100261.84
2022-10-14T17:22:05.859Z,100271.59
2022-10-14T17:24:33.084Z,100270.78
2022-10-14T17:27:04.567Z,100268.34
2022-10-14T17:29:32.107Z,100281.44
2022-10-14T17:31:59.299Z,100282.34
2022-10-14T17:34:26.540Z,100279.41
2022-10-14T17:36:54.307Z,100282.38
2022-10-14T17:39:27.587Z,100287.66
2022-10-14T17:41:56.714Z,100289.56
2022-10-14T17:44:24.565Z,100285.09
2022-10-14T17:46:52.030Z,100292.31
2022-10-14T17:49:19.890Z,100307.09
2022-10-14T17:51:47.377Z,100301.94
2022-10-14T17:54:14.684Z,100302.88
2022-10-14T17:56:43.091Z,100308.31
2022-10-14T17:59:11.957Z,100309.97
2022-10-14T18:04:26.494Z,100320.00
2022-10-14T18:06:54.230Z,100301.75
2022-10-14T18:09:21.725Z,100310.06
2022-10-14T18:14:39.039Z,100312.09
2022-10-14T18:17:06.469Z,100308.88
2022-10-14T18:19:36.360Z,100306.44
2022-10-14T18:22:04.132Z,100292.56
2022-10-14T18:24:32.336Z,100300.97
2022-10-14T18:26:59.529Z,100298.72
2022-10-14T18:29:26.822Z,100303.47
2022-10-14T18:31:54.016Z,100313.31
2022-10-14T18:34:22.454Z,100314.88
2022-10-14T18:36:49.874Z,100318.88
2022-10-14T18:39:17.065Z,100309.66
2022-10-14T18:41:44.398Z,100321.28
2022-10-14T18:44:12.083Z,100315.06
2022-10-14T18:46:40.418Z,100314.47
2022-10-14T18:49:10.278Z,100312.06
2022-10-14T18:51:38.831Z,100314.38
2022-10-14T18:54:20.550Z,100318.63
2022-10-14T18:56:48.023Z,100314.28
2022-10-14T18:59:23.368Z,100312.91
2022-10-14T19:01:55.221Z,100318.28
2022-10-14T19:04:26.678Z,100321.28
2022-10-14T19:06:54.016Z,100320.75
2022-10-14T19:09:24.493Z,100331.94
2022-10-14T19:11:52.707Z,100340.53
2022-10-14T19:14:22.337Z,100351.06
2022-10-14T19:16:49.854Z,100355.50
2022-10-14T19:19:19.550Z,100355.78
2022-10-14T19:21:51.034Z,100351.09
2022-10-14T19:24:18.435Z,100353.84
2022-10-14T19:26:46.875Z,100362.75
2022-10-14T19:29:15.716Z,100368.25
2022-10-14T19:31:43.898Z,100369.06
2022-10-14T19:34:14.520Z,100368.94
2022-10-14T19:36:43.507Z,100374.44
2022-10-14T19:39:13.418Z,100377.69
2022-10-14T19:41:46.254Z,100376.53
2022-10-14T19:44:15.484Z,100373.94
2022-10-14T19:46:44.302Z,100385.63
2022-10-14T19:49:13.410Z,100389.56
2022-10-14T19:51:40.867Z,100391.19
2022-10-14T19:54:09.942Z,100389.63
2022-10-14T19:56:37.197Z,100401.28
2022-10-14T19:59:04.431Z,100405.34
2022-10-14T20:01:32.343Z,100398.91
2022-10-14T20:04:00.803Z,100409.25
2022-10-14T20:06:31.709Z,100424.59
2022-10-14T20:08:58.999Z,100423.75
2022-10-14T20:11:26.448Z,100435.81
2022-10-14T20:13:53.898Z,100445.84
2022-10-14T20:16:21.072Z,100435.75
2022-10-14T20:18:48.335Z,100436.38
2022-10-14T20:21:16.184Z,100440.09
2022-10-14T20:23:43.682Z,100435.19
2022-10-14T20:26:18.042Z,100442.19
2022-10-14T20:28:46.108Z,100443.69
2022-10-14T20:31:16.168Z,100441.78
2022-10-14T20:33:43.665Z,100451.19
2022-10-14T20:36:18.246Z,100459.00
2022-10-14T20:38:49.499Z,100467.13
2022-10-14T20:41:24.314Z,100451.72
2022-10-14T20:43:52.886Z,100451.47
2022-10-14T20:46:21.770Z,100457.78
2022-10-14T20:48:53.460Z,100459.13
2022-10-14T20:51:22.598Z,100464.06
2022-10-14T20:53:50.148Z,100464.22
2022-10-14T20:56:17.461Z,100478.31
2022-10-14T20:58:44.974Z,100486.25
2022-10-14T21:01:17.109Z,100490.09
2022-10-14T21:03:46.232Z,100499.19
2022-10-14T21:06:26.903Z,100493.66
2022-10-14T21:08:54.669Z,100491.59
2022-10-14T21:11:23.425Z,100493.84
2022-10-14T21:13:52.903Z,100491.31
2022-10-14T21:16:25.793Z,100488.03
2022-10-14T21:18:58.053Z,100495.09
2022-10-14T21:21:27.241Z,100493.44
2022-10-14T21:23:55.555Z,100488.28
2022-10-14T21:26:23.096Z,100492.09
2022-10-14T21:28:50.451Z,100481.31
2022-10-14T21:31:19.312Z,100481.56
2022-10-14T21:33:47.770Z,100491.66
2022-10-14T21:36:16.700Z,100483.25
2022-10-14T21:38:44.393Z,100493.88
2022-10-14T21:41:12.107Z,100496.78
2022-10-14T21:43:39.696Z,100488.13
2022-10-14T21:46:14.322Z,100484.06
2022-10-14T21:48:42.488Z,100490.81
2022-10-14T21:51:12.089Z,100496.28
2022-10-14T21:53:40.479Z,100497.13
2022-10-14T21:56:08.300Z,100487.50
2022-10-14T21:58:36.129Z,100485.84
2022-10-14T22:01:24.340Z,100497.22
2022-10-14T22:03:59.539Z,100495.91
2022-10-14T22:06:27.237Z,100487.72
2022-10-14T22:08:56.364Z,100490.34
2022-10-14T22:11:29.152Z,100497.09
2022-10-14T22:13:58.275Z,100494.47
2022-10-14T22:16:28.907Z,100493.41
2022-10-14T22:18:58.396Z,100491.31
2022-10-14T22:21:27.336Z,100499.06
2022-10-14T22:23:54.621Z,100491.00
2022-10-14T22:26:23.853Z,100487.84
2022-10-14T22:28:58.957Z,100499.66
2022-10-14T22:31:27.340Z,100493.56
2022-10-14T22:33:54.580Z,100494.34
2022-10-14T22:36:24.353Z,100493.06
2022-10-14T22:38:53.120Z,100494.06
2022-10-14T22:41:21.156Z,100490.88
2022-10-14T22:43:50.415Z,100500.97
2022-10-14T22:46:22.291Z,100491.59
2022-10-14T22:48:50.302Z,100492.75
2022-10-14T22:51:20.074Z,100477.50
2022-10-14T22:53:47.412Z,100474.91
2022-10-14T22:56:22.467Z,100479.38
2022-10-14T22:58:54.071Z,100483.03
2022-10-14T23:01:22.247Z,100479.34
2022-10-14T23:03:50.533Z,100489.16
2022-10-14T23:06:17.774Z,100475.53
2022-10-14T23:08:45.061Z,100465.09
2022-10-14T23:11:18.459Z,100468.44
2022-10-14T23:13:46.110Z,100474.00
2022-10-14T23:16:31.653Z,100477.03
2022-10-14T23:18:59.375Z,100468.75
2022-10-14T23:21:29.198Z,100467.69
2022-10-14T23:23:58.072Z,100472.91
2022-10-14T23:26:27.141Z,100479.81
2022-10-14T23:28:57.388Z,100466.97
2022-10-14T23:31:25.547Z,100471.75
2022-10-14T23:33:53.177Z,100482.59
2022-10-14T23:36:21.968Z,100474.31
2022-10-14T23:38:49.898Z,100470.19
2022-10-14T23:41:17.155Z,100471.16
2022-10-14T23:43:45.481Z,100464.09
2022-10-14T23:46:12.960Z,100456.34
2022-10-14T23:48:40.670Z,100462.34
2022-10-14T23:51:08.634Z,100457.16
2022-10-14T23:53:35.926Z,100460.66
2022-10-14T23:56:04.367Z,100457.06
2022-10-14T23:58:32.381Z,100457.50
